This is the latest recevied weather packets stored in our database for station/object DL2DHM-13. If no packets are shown the sender has not sent any weather packets the latest 10 day(s).
| Time | Temp. | Humidity | Pressure | Rain* | Wind** | Luminosity | Snow |
|---|---|---|---|---|---|---|---|
| 1777693539 | 6.11° C | 90% | 1019.7 hPa | 0 mm | - | 0 W/m² | - |
| 1777691439 | 6.11° C | 89% | 1019.9 hPa | 0 mm | - | 0 W/m² | - |
| 1777691134 | 6.11° C | 89% | 1019.9 hPa | 0 mm | - | 0 W/m² | - |
| 1777689329 | 6.67° C | 88% | 1020.1 hPa | 0 mm | - | 0 W/m² | - |
| 1777685722 | 6.67° C | 88% | 1020.5 hPa | 0 mm | - | 0 W/m² | - |
| 1777685120 | 7.22° C | 88% | 1020.6 hPa | 0 mm | - | 0 W/m² | - |
| 1777684820 | 7.22° C | 87% | 1020.7 hPa | 0 mm | - | 0 W/m² | - |
| 1777683916 | 7.22° C | 87% | 1020.9 hPa | 0 mm | - | 0 W/m² | - |
| 1777683013 | 7.22° C | 86% | 1021.1 hPa | 0 mm | - | 0 W/m² | - |
| 1777682714 | 7.78° C | 86% | 1021.2 hPa | 0 mm | - | 0 W/m² | - |
| 1777680908 | 8.33° C | 82% | 1021.3 hPa | 0 mm | - | 0 W/m² | - |
| 1777677956 | 11.11° C | 72% | 1021.6 hPa | 0 mm | - | 0 W/m² | - |
| 1777676149 | 12.78° C | 68% | 1021.8 hPa | 0 mm | - | 0 W/m² | - |
| 1777674947 | 12.78° C | 68% | 1021.9 hPa | 0 mm | - | 0 W/m² | - |
| 1777673140 | 12.22° C | 70% | 1021.9 hPa | 0 mm | - | 0 W/m² | - |
| 1777672900 | 12.22° C | 70% | 1021.9 hPa | 0 mm | - | 0 W/m² | - |
| 1777670741 | 12.78° C | 70% | 1021.9 hPa | 0 mm | - | 0 W/m² | - |
| 1777670139 | 12.78° C | 69% | 1021.9 hPa | 0 mm | - | 0 W/m² | - |
| 1777669837 | 13.33° C | 68% | 1021.9 hPa | 0 mm | - | 0 W/m² | - |
| 1777669536 | 13.33° C | 67% | 1021.9 hPa | 0 mm | - | 0 W/m² | - |
| 1777669237 | 13.33° C | 67% | 1021.9 hPa | 0 mm | - | 0 W/m² | - |
| 1777668937 | 13.33° C | 67% | 1021.9 hPa | 0 mm | - | 0 W/m² | - |
| 1777667736 | 13.89° C | 66% | 1022 hPa | 0 mm | - | 0 W/m² | - |
| 1777666840 | 13.89° C | 65% | 1022 hPa | 0 mm | - | 0 W/m² | - |
| 1777665934 | 14.44° C | 63% | 1022.1 hPa | 0 mm | - | 0 W/m² | - |
* Rain latest hour (hover to see other rain measurements)
** Current wind speed in m/s (hover to see current wind gust speed)